Latest Coastal Weather Observations for Cape Moreton

IDQ60701

Issued at 12:51 am EST Wednesday 23 August 2017 (issued every 10 minutes, with the page automatically refreshed every 10 minutes)

About coastal observations | Map of coastal stations | Coastal observations for QLD | Marine services | Other Formats
Station Details ID: 040043 Name: CAPE MORETON LIGHTHOUSE Lat: -27.03 Lon: 153.47 Height: 99.9 m
Data from the previous 72 hours. | See also: Recent months at Cape Moreton
Date/Time
EST
Temp
°C
Wind Pressure Rain since
9am
mm
Weather Cloud Vis
km
Sea
Height
m
Swell
Dir  Spd
kts
Gust
kts
hPa Trend Height
m
Period
s
Dir
23/12:30am 19.9 NW 18 24 1019.1 - 0.2 - - - - - - -
23/12:00am 20.0 NNW 18 24 1018.9 - 0.2 - - - - - - -
 
Date/Time
EST
Temp
°C
Wind Pressure Rain since
9am
mm
Weather Cloud Vis
km
Sea
Height
m
Swell
Dir  Spd
kts
Gust
kts
hPa Trend Height
m
Period
s
Dir
22/11:30pm 20.0 NNW 18 24 1019.0 - 0.2 - - - - - - -
22/11:00pm 20.0 NNW 17 23 1019.1 - 0.2 - - - - - - -
22/10:30pm 20.0 NNW 15 22 1019.2 - 0.2 - - - - - - -
22/10:00pm 20.1 NNW 18 25 1019.1 - 0.2 - - - - - - -
22/09:30pm 20.5 NNW 22 27 1019.0 - 0.2 - - - - - - -
22/09:00pm 20.5 N 21 26 1018.8 - 0.2 - - - - - - -
22/08:30pm 20.5 N 20 25 1018.7 - 0.2 - - - - - - -
22/08:00pm 20.4 N 19 24 1018.5 - 0.2 - - - - - - -
22/07:30pm 20.2 N 15 22 1018.2 - 0.2 - - - - - - -
22/07:00pm 20.5 N 17 22 1018.0 - 0.2 - - - - - - -
22/06:30pm 20.5 N 16 21 1017.6 - 0.2 - - - - - - -
22/06:00pm 20.2 N 15 21 1017.2 - 0.2 - - - - - - -
22/05:30pm 20.4 N 17 21 1017.0 - 0.2 - - - - - - -
22/05:00pm 20.5 N 16 22 1016.6 - 0.2 - - - - - - -
22/04:30pm 20.8 NNE 17 21 1016.6 - 0.2 - - - - - - -
22/04:00pm 21.1 NNE 16 20 1016.5 - 0.2 - - - - - - -
22/03:30pm 21.4 NNE 15 19 1016.5 - 0.2 - - - - - - -
22/03:00pm 21.7 NNE 13 18 1016.6 - 0.2 - - - - - - -
22/02:30pm 21.9 NNE 13 16 1016.6 - 0.2 - - - - - - -
22/02:00pm 22.2 N 12 16 1016.7 - 0.2 - - - - - - -
22/01:30pm 21.6 N 15 19 1017.0 - 0.2 - - - - - - -
22/01:00pm 21.8 N 15 19 1017.4 - 0.2 - - - - - - -
22/12:30pm 21.4 NNW 14 19 1017.8 - 0.2 - - - - - - -
22/12:00pm 21.6 NNW 13 19 1018.3 - 0.2 Recent precip. - - - - - -
22/11:30am 21.5 NNW 13 20 1018.7 - 0.0 - - - - - - -
22/11:00am 20.7 NW 15 19 1019.3 - 0.0 - - - - - - -
22/10:30am 21.0 NW 14 19 1019.7 - 0.0 - - - - - - -
22/10:00am 20.9 NW 13 17 1020.0 - 0.0 - - - - - - -
22/09:30am 20.5 NW 12 16 1020.2 - 0.0 - - - - - - -
22/09:00am 20.1 NW 12 16 1020.1 - 1.6 - - - - - - -
22/08:30am 19.9 NW 11 15 1020.0 - 1.6 - - - - - - -
22/08:00am 19.8 NNW 13 19 1019.7 - 1.6 - - - - - - -
22/07:30am 19.4 NNW 15 21 1019.6 - 1.6 - - - - - - -
22/07:00am 19.2 NNW 13 18 1019.2 - 1.6 - - - - - - -
22/06:30am 18.7 NNW 11 17 1019.1 - 1.6 - - - - - - -
22/06:00am 18.3 NNW 11 16 1019.0 - 1.6 - - - - - - -
22/05:30am 18.1 NNW 10 15 1018.7 - 1.6 - - - - - - -
22/05:00am 17.9 NNW 9 13 1018.7 - 1.6 - - - - - - -
22/04:30am 18.1 NW 10 14 1018.6 - 1.6 - - - - - - -
22/04:00am 18.1 NW 10 14 1018.6 - 1.6 - - - - - - -
22/03:30am 18.0 NW 11 15 1018.5 - 1.6 - - - - - - -
22/03:00am 18.0 WNW 9 12 1018.5 - 1.6 Recent precip. - - - - - -
22/02:30am 18.6 NNW 12 16 1018.6 - 1.4 - - - - - - -
22/02:00am 18.7 N 12 16 1018.1 - 1.4 - - - - - - -
22/01:30am 18.6 N 13 17 1018.8 - 1.4 - - - - - - -
22/01:00am 18.9 N 13 19 1018.8 - 1.4 - - - - - - -
22/12:30am 18.7 N 10 15 1019.1 - 1.4 - - - - - - -
22/12:00am 18.7 NNW 11 15 1019.6 - 1.4 - - - - - - -
 
Date/Time
EST
Temp
°C
Wind Pressure Rain since
9am
mm
Weather Cloud Vis
km
Sea
Height
m
Swell
Dir  Spd
kts
Gust
kts
hPa Trend Height
m
Period
s
Dir
21/11:30pm 18.7 N 12 15 1019.3 - 1.4 - - - - - - -
21/11:00pm 18.5 N 12 16 1019.0 - 1.4 - - - - - - -
21/10:30pm 18.5 N 11 15 1019.2 - 1.4 - - - - - - -
21/10:00pm 18.5 N 11 15 1019.3 - 1.4 - - - - - - -
21/09:30pm 18.4 N 11 15 1019.2 - 1.4 - - - - - - -
21/09:00pm 18.3 N 11 15 1019.3 - 1.4 - - - - - - -
21/08:30pm 18.4 N 11 14 1019.2 - 1.4 - - - - - - -
21/08:00pm 18.3 N 11 15 1019.2 - 1.4 - - - - - - -
21/07:30pm 18.1 NNE 11 15 1019.1 - 1.4 - - - - - - -
21/07:00pm 18.0 NNE 13 17 1018.8 - 1.4 - - - - - - -
21/06:30pm 17.6 NNE 14 18 1018.3 - 1.4 - - - - - - -
21/06:00pm 17.6 NNE 14 17 1018.0 - 1.4 - - - - - - -
21/05:30pm 17.2 NE 11 14 1018.4 - 1.4 - - - - - - -
21/05:00pm 17.2 ENE 12 15 1018.3 - 1.4 - - - - - - -
21/04:30pm 17.0 ENE 7 10 1018.5 - 1.4 - - - - - - -
21/04:00pm 17.8 NE 5 8 1018.8 - 1.4 - - - - - - -
21/03:30pm 17.3 NNE 3 5 1019.0 - 1.4 - - - - - - -
21/03:00pm 18.2 E 5 7 1019.0 - 1.4 - - - - - - -
21/02:30pm 17.5 NE 5 6 1019.3 - 1.4 - - - - - - -
21/02:00pm 18.1 N 3 6 1019.3 - 1.4 - - - - - - -
21/01:30pm 17.5 WNW 3 4 1019.6 - 1.4 - - - - - - -
21/01:00pm 16.0 ESE 4 5 1020.1 - 1.4 - - - - - - -
21/12:30pm 16.7 SSW 6 8 1020.4 - 1.4 - - - - - - -
21/12:00pm 17.1 SSW 2 4 1020.9 - 1.4 - - - - - - -
21/11:30am 16.1 WSW 6 8 1021.1 - 1.4 - - - - - - -
21/11:00am 14.6 WSW 9 11 1021.6 - 1.4 - - - - - - -
21/10:30am 13.4 WSW 8 10 1022.1 - 1.0 - - - - - - -
21/10:00am 14.3 WSW 9 12 1022.1 - 0.2 - - - - - - -
21/09:30am 13.5 WSW 10 13 1022.0 - 0.0 - - - - - - -
21/09:00am 14.9 SSW 5 7 1021.9 - 0.2 Recent precip. - - - - - -
21/08:30am 15.0 S 8 12 1021.4 - 0.0 - - - - - - -
21/08:00am 14.8 SSE 11 15 1021.3 - 0.0 - - - - - - -
21/07:30am 15.0 S 9 13 1021.2 - 0.0 - - - - - - -
21/07:00am 14.4 SSW 11 14 1020.7 - 0.0 - - - - - - -
21/06:30am 14.2 SSW 13 18 1020.1 - 0.0 - - - - - - -
21/06:00am 14.1 SSW 14 18 1019.3 - 0.0 - - - - - - -
21/05:30am 13.9 SSW 14 17 1019.0 - 0.0 - - - - - - -
21/05:00am 14.1 S 12 14 1018.8 - 0.0 - - - - - - -
21/04:30am 14.0 SSW 11 14 1018.4 - 0.0 - - - - - - -
21/04:00am 13.5 SSW 11 14 1018.7 - 0.0 - - - - - - -
21/03:30am 13.5 SSW 12 15 1019.0 - 0.0 - - - - - - -
21/03:00am 14.1 SSW 11 15 1018.8 - 0.0 - - - - - - -
21/02:30am 15.6 SSE 15 21 1018.6 - 0.0 - - - - - - -
21/02:00am 15.4 SSE 15 23 1018.9 - 0.0 - - - - - - -
21/01:34am 15.6 SSE 16 26 1019.2 - 0.0 - - - - - - -
21/01:30am 15.6 SSE 17 22 1019.3 - 0.0 - - - - - - -
21/01:00am 14.4 SSW 14 19 1019.7 - 0.0 - - - - - - -
21/12:30am 14.6 SSW 13 17 1020.0 - 0.0 - - - - - - -
21/12:00am 14.6 S 13 16 1020.1 - 0.0 - - - - - - -
 
Date/Time
EST
Temp
°C
Wind Pressure Rain since
9am
mm
Weather Cloud Vis
km
Sea
Height
m
Swell
Dir  Spd
kts
Gust
kts
hPa Trend Height
m
Period
s
Dir
20/11:30pm 14.7 S 14 19 1020.3 - 0.0 - - - - - - -
20/11:00pm 14.7 SSW 13 16 1020.3 - 0.0 - - - - - - -
20/10:30pm 16.0 SSE 12 18 1020.3 - 0.0 - - - - - - -
20/10:00pm 15.4 S 12 15 1020.3 - 0.0 - - - - - - -
20/09:30pm 15.2 SSW 12 17 1020.2 - 0.0 - - - - - - -
20/09:00pm 16.0 S 12 15 1019.9 - 0.0 - - - - - - -
20/08:30pm 17.4 SSE 15 20 1019.8 - 0.0 - - - - - - -
20/08:00pm 17.3 SSE 18 23 1019.7 - 0.0 - - - - - - -
20/07:30pm 17.2 SSE 19 25 1019.3 - 0.0 - - - - - - -
20/07:00pm 17.3 SE 19 26 1018.9 - 0.0 - - - - - - -
20/06:30pm 16.9 SE 19 23 1018.8 - 0.0 - - - - - - -
20/06:00pm 16.9 SSE 18 24 1018.6 - 0.0 - - - - - - -
20/05:30pm 16.7 SE 21 27 1018.2 - 0.0 - - - - - - -
20/05:00pm 16.8 SSE 17 23 1018.1 - 0.0 - - - - - - -
20/04:30pm 16.9 SE 16 21 1018.1 - 0.0 - - - - - - -
20/04:00pm 16.9 SE 16 21 1018.0 - 0.0 - - - - - - -
20/03:30pm 16.9 SSE 15 20 1017.8 - 0.0 - - - - - - -
20/03:00pm 16.9 SSE 11 16 1017.8 - 0.0 - - - - - - -
20/02:30pm 17.0 SE 13 17 1017.8 - 0.0 - - - - - - -
20/02:00pm 17.4 SSE 10 15 1017.9 - 0.0 - - - - - - -
20/01:30pm 17.1 S 11 17 1018.0 - 0.0 - - - - - - -
20/01:00pm 17.0 S 14 19 1018.3 - 0.0 - - - - - - -
20/12:30pm 17.5 S 12 18 1018.6 - 0.0 - - - - - - -
20/12:00pm 17.2 S 11 17 1018.9 - 0.0 - - - - - - -
20/11:30am 16.2 S 13 19 1019.2 - 0.0 - - - - - - -
20/11:00am 16.1 S 13 20 1019.8 - 0.0 - - - - - - -
20/10:30am 15.7 S 14 21 1020.0 - 0.0 - - - - - - -
20/10:00am 15.1 S 17 24 1020.0 - 0.0 - - - - - - -
20/09:30am 15.1 S 15 24 1019.8 - 0.0 - - - - - - -
20/09:00am 15.1 SW 15 25 1019.9 - 0.0 - - - - - - -
20/08:43am 14.7 SSW 15 25 1020.0 - 0.0 - - - - - - -
20/08:30am 14.6 SSW 15 23 1019.9 - 0.0 - - - - - - -
20/08:00am 14.0 SW 13 19 1019.8 - 0.0 - - - - - - -
20/07:30am 13.0 SW 13 17 1019.5 - 0.0 - - - - - - -
20/07:00am 11.9 SW 13 18 1018.9 - 0.0 - - - - - - -
20/06:30am 11.1 SW 11 15 1018.5 - 0.0 - - - - - - -
20/06:00am 11.2 SW 12 15 1018.2 - 0.0 - - - - - - -
20/05:30am 11.7 SW 14 18 1017.7 - 0.0 - - - - - - -
20/05:00am 12.0 SSW 16 21 1017.3 - 0.0 - - - - - - -
20/04:30am 11.6 SW 12 17 1016.8 - 0.0 - - - - - - -
20/04:00am 11.9 SW 13 19 1016.6 - 0.0 - - - - - - -
20/03:30am 12.1 SW 15 20 1016.4 - 0.0 - - - - - - -
20/03:00am 12.3 SW 14 20 1016.3 - 0.0 - - - - - - -
20/02:30am 12.4 SW 15 22 1016.2 - 0.0 - - - - - - -
20/02:00am 12.5 SW 15 20 1016.4 - 0.0 - - - - - - -
20/01:30am 12.5 SW 14 19 1016.7 - 0.0 - - - - - - -
20/01:00am 12.8 SW 14 22 1016.8 - 0.0 - - - - - - -

Other Formats:

Comma delimited format used in spreadsheet applications
http://www.bom.gov.au/fwo/IDQ60701/IDQ60701.94594.axf

JavaScript Object Notation format (JSON) in row-major order
http://www.bom.gov.au/fwo/IDQ60701/IDQ60701.94594.json